sensor_id;sensor_type;location;lat;lon;timestamp;pressure;altitude;pressure_sealevel;temperature;humidity
12182;BME280;6154;51.550;12.138;2023-08-20T00:00:14;100796.75;;;29.18;63.28
12182;BME280;6154;51.550;12.138;2023-08-20T00:02:43;100807.25;;;29.22;62.72
12182;BME280;6154;51.550;12.138;2023-08-20T00:05:16;100811.00;;;29.20;63.52
12182;BME280;6154;51.550;12.138;2023-08-20T00:07:45;100818.16;;;29.22;62.77
12182;BME280;6154;51.550;12.138;2023-08-20T00:10:14;100818.59;;;29.25;62.35
12182;BME280;6154;51.550;12.138;2023-08-20T00:12:42;100821.66;;;29.15;63.75
12182;BME280;6154;51.550;12.138;2023-08-20T00:15:10;100816.19;;;29.15;62.91
12182;BME280;6154;51.550;12.138;2023-08-20T00:17:39;100815.56;;;29.13;63.09
12182;BME280;6154;51.550;12.138;2023-08-20T00:20:09;100819.22;;;28.99;64.42
12182;BME280;6154;51.550;12.138;2023-08-20T00:22:40;100821.97;;;29.06;63.54
12182;BME280;6154;51.550;12.138;2023-08-20T00:25:12;100823.87;;;29.05;63.73
12182;BME280;6154;51.550;12.138;2023-08-20T00:27:40;100815.69;;;29.05;63.49
12182;BME280;6154;51.550;12.138;2023-08-20T00:30:09;100819.00;;;29.01;63.49
12182;BME280;6154;51.550;12.138;2023-08-20T00:32:38;100825.03;;;28.96;64.04
12182;BME280;6154;51.550;12.138;2023-08-20T00:35:07;100821.66;;;28.94;64.24
12182;BME280;6154;51.550;12.138;2023-08-20T00:37:35;100833.34;;;28.88;64.13
12182;BME280;6154;51.550;12.138;2023-08-20T00:40:05;100839.16;;;28.85;64.76
12182;BME280;6154;51.550;12.138;2023-08-20T00:42:36;100843.56;;;28.86;63.83
12182;BME280;6154;51.550;12.138;2023-08-20T00:45:07;100841.41;;;28.60;65.01
12182;BME280;6154;51.550;12.138;2023-08-20T00:47:39;100844.22;;;28.52;65.64
12182;BME280;6154;51.550;12.138;2023-08-20T00:50:09;100847.06;;;28.44;66.88
12182;BME280;6154;51.550;12.138;2023-08-20T00:52:37;100849.59;;;28.45;65.68
12182;BME280;6154;51.550;12.138;2023-08-20T00:55:08;100855.03;;;28.45;65.38
12182;BME280;6154;51.550;12.138;2023-08-20T00:57:39;100856.22;;;28.36;66.20
12182;BME280;6154;51.550;12.138;2023-08-20T01:00:09;100866.41;;;28.34;66.55
12182;BME280;6154;51.550;12.138;2023-08-20T01:02:39;100855.91;;;28.31;66.29
12182;BME280;6154;51.550;12.138;2023-08-20T01:05:11;100861.91;;;28.26;66.96
12182;BME280;6154;51.550;12.138;2023-08-20T01:07:58;100870.09;;;28.26;66.82
12182;BME280;6154;51.550;12.138;2023-08-20T01:10:34;100860.37;;;28.24;68.80
12182;BME280;6154;51.550;12.138;2023-08-20T01:13:10;100861.91;;;28.12;69.03
12182;BME280;6154;51.550;12.138;2023-08-20T01:15:38;100866.50;;;28.11;68.05
12182;BME280;6154;51.550;12.138;2023-08-20T01:18:08;100871.37;;;28.16;67.00
12182;BME280;6154;51.550;12.138;2023-08-20T01:20:41;100866.81;;;28.16;67.01
12182;BME280;6154;51.550;12.138;2023-08-20T01:26:35;100871.09;;;28.11;70.46
12182;BME280;6154;51.550;12.138;2023-08-20T01:29:10;100875.91;;;28.09;69.58
12182;BME280;6154;51.550;12.138;2023-08-20T01:31:39;100873.38;;;28.07;68.14
12182;BME280;6154;51.550;12.138;2023-08-20T01:34:08;100874.94;;;28.01;69.15
12182;BME280;6154;51.550;12.138;2023-08-20T01:36:37;100874.84;;;27.95;70.00
12182;BME280;6154;51.550;12.138;2023-08-20T01:39:05;100876.25;;;28.05;68.07
12182;BME280;6154;51.550;12.138;2023-08-20T01:41:34;100874.00;;;27.94;68.74
12182;BME280;6154;51.550;12.138;2023-08-20T01:44:03;100875.81;;;27.87;69.43
12182;BME280;6154;51.550;12.138;2023-08-20T01:46:33;100877.75;;;27.93;69.28
12182;BME280;6154;51.550;12.138;2023-08-20T01:49:01;100875.59;;;27.89;70.32
12182;BME280;6154;51.550;12.138;2023-08-20T01:51:30;100874.37;;;27.91;68.28
12182;BME280;6154;51.550;12.138;2023-08-20T01:53:58;100879.56;;;27.86;68.73
12182;BME280;6154;51.550;12.138;2023-08-20T01:56:26;100881.78;;;27.83;69.05
12182;BME280;6154;51.550;12.138;2023-08-20T01:58:54;100879.44;;;27.80;68.99
12182;BME280;6154;51.550;12.138;2023-08-20T02:01:22;100885.34;;;27.68;70.24
12182;BME280;6154;51.550;12.138;2023-08-20T02:03:53;100880.38;;;27.72;69.58
12182;BME280;6154;51.550;12.138;2023-08-20T02:06:21;100886.19;;;27.69;70.12
12182;BME280;6154;51.550;12.138;2023-08-20T02:08:49;100886.19;;;27.69;69.30
12182;BME280;6154;51.550;12.138;2023-08-20T02:11:17;100892.31;;;27.63;70.03
12182;BME280;6154;51.550;12.138;2023-08-20T02:13:45;100895.94;;;27.55;70.53
12182;BME280;6154;51.550;12.138;2023-08-20T02:16:13;100899.34;;;27.57;70.23
12182;BME280;6154;51.550;12.138;2023-08-20T02:18:43;100895.09;;;27.55;71.08
12182;BME280;6154;51.550;12.138;2023-08-20T02:21:13;100904.47;;;27.52;70.71
12182;BME280;6154;51.550;12.138;2023-08-20T02:23:41;100897.91;;;27.46;72.94
12182;BME280;6154;51.550;12.138;2023-08-20T02:26:09;100898.75;;;27.47;71.50
12182;BME280;6154;51.550;12.138;2023-08-20T02:28:37;100895.47;;;27.52;71.07
12182;BME280;6154;51.550;12.138;2023-08-20T02:31:06;100900.31;;;27.41;72.61
12182;BME280;6154;51.550;12.138;2023-08-20T02:33:35;100906.06;;;27.46;71.67
12182;BME280;6154;51.550;12.138;2023-08-20T02:36:04;100906.97;;;27.39;71.58
12182;BME280;6154;51.550;12.138;2023-08-20T02:38:33;100908.53;;;27.33;72.41
12182;BME280;6154;51.550;12.138;2023-08-20T02:41:02;100917.00;;;27.38;71.44
12182;BME280;6154;51.550;12.138;2023-08-20T02:43:30;100922.69;;;27.29;73.05
12182;BME280;6154;51.550;12.138;2023-08-20T02:46:00;100925.22;;;27.30;72.47
12182;BME280;6154;51.550;12.138;2023-08-20T02:48:30;100924.38;;;27.30;72.18
12182;BME280;6154;51.550;12.138;2023-08-20T02:50:59;100927.34;;;27.20;73.54
12182;BME280;6154;51.550;12.138;2023-08-20T02:53:28;100932.78;;;27.20;72.67
12182;BME280;6154;51.550;12.138;2023-08-20T02:55:57;100932.13;;;27.18;73.46
12182;BME280;6154;51.550;12.138;2023-08-20T02:58:25;100926.31;;;27.21;72.92
12182;BME280;6154;51.550;12.138;2023-08-20T03:00:53;100935.78;;;27.25;72.14
12182;BME280;6154;51.550;12.138;2023-08-20T03:03:22;100937.00;;;27.23;71.91
12182;BME280;6154;51.550;12.138;2023-08-20T03:05:50;100929.06;;;27.13;73.96
12182;BME280;6154;51.550;12.138;2023-08-20T03:08:18;100930.91;;;27.20;71.49
12182;BME280;6154;51.550;12.138;2023-08-20T03:10:47;100918.16;;;27.21;71.42
12182;BME280;6154;51.550;12.138;2023-08-20T03:13:16;100913.75;;;27.20;71.66
12182;BME280;6154;51.550;12.138;2023-08-20T03:15:44;100917.69;;;27.17;71.54
12182;BME280;6154;51.550;12.138;2023-08-20T03:18:13;100927.09;;;27.07;73.54
12182;BME280;6154;51.550;12.138;2023-08-20T03:20:41;100933.84;;;27.11;73.09
12182;BME280;6154;51.550;12.138;2023-08-20T03:23:09;100931.78;;;27.13;72.89
12182;BME280;6154;51.550;12.138;2023-08-20T03:25:38;100936.56;;;27.11;72.62
12182;BME280;6154;51.550;12.138;2023-08-20T03:28:06;100936.69;;;26.86;75.75
12182;BME280;6154;51.550;12.138;2023-08-20T03:30:37;100936.44;;;27.04;74.71
12182;BME280;6154;51.550;12.138;2023-08-20T03:33:06;100941.44;;;27.15;73.62
12182;BME280;6154;51.550;12.138;2023-08-20T03:35:34;100943.31;;;27.15;75.03
12182;BME280;6154;51.550;12.138;2023-08-20T03:38:02;100933.56;;;26.67;77.38
12182;BME280;6154;51.550;12.138;2023-08-20T03:40:30;100929.44;;;27.10;77.28
12182;BME280;6154;51.550;12.138;2023-08-20T03:42:58;100926.69;;;26.79;75.74
12182;BME280;6154;51.550;12.138;2023-08-20T03:45:28;100932.50;;;26.76;76.24
12182;BME280;6154;51.550;12.138;2023-08-20T03:47:59;100939.41;;;26.86;75.10
12182;BME280;6154;51.550;12.138;2023-08-20T03:50:27;100941.94;;;26.88;75.61
12182;BME280;6154;51.550;12.138;2023-08-20T03:52:55;100926.41;;;26.65;78.55
12182;BME280;6154;51.550;12.138;2023-08-20T03:55:24;100936.94;;;26.69;77.72
12182;BME280;6154;51.550;12.138;2023-08-20T03:57:52;100933.19;;;26.70;77.74
12182;BME280;6154;51.550;12.138;2023-08-20T04:00:20;100941.38;;;26.61;79.28
12182;BME280;6154;51.550;12.138;2023-08-20T04:02:49;100937.16;;;26.59;78.72
12182;BME280;6154;51.550;12.138;2023-08-20T04:05:18;100933.41;;;26.60;77.80
12182;BME280;6154;51.550;12.138;2023-08-20T04:07:46;100933.03;;;26.63;79.51
12182;BME280;6154;51.550;12.138;2023-08-20T04:10:14;100929.81;;;26.68;78.15
12182;BME280;6154;51.550;12.138;2023-08-20T04:12:43;100938.47;;;26.63;78.48
12182;BME280;6154;51.550;12.138;2023-08-20T04:15:11;100939.88;;;26.59;78.76
12182;BME280;6154;51.550;12.138;2023-08-20T04:17:39;100944.94;;;26.62;77.23
12182;BME280;6154;51.550;12.138;2023-08-20T04:20:08;100942.22;;;26.62;77.15
12182;BME280;6154;51.550;12.138;2023-08-20T04:22:38;100939.13;;;26.73;76.01
12182;BME280;6154;51.550;12.138;2023-08-20T04:25:07;100950.81;;;26.74;75.76
12182;BME280;6154;51.550;12.138;2023-08-20T04:27:36;100944.22;;;26.76;75.24
12182;BME280;6154;51.550;12.138;2023-08-20T04:30:06;100952.19;;;26.78;75.52
12182;BME280;6154;51.550;12.138;2023-08-20T04:32:34;100953.41;;;26.67;77.33
12182;BME280;6154;51.550;12.138;2023-08-20T04:35:02;100956.81;;;27.00;75.44
12182;BME280;6154;51.550;12.138;2023-08-20T04:37:32;100962.87;;;26.79;75.90
12182;BME280;6154;51.550;12.138;2023-08-20T04:40:03;100971.66;;;26.89;74.99
12182;BME280;6154;51.550;12.138;2023-08-20T04:42:32;100965.00;;;26.92;75.64
12182;BME280;6154;51.550;12.138;2023-08-20T04:45:00;100968.19;;;26.96;74.99
12182;BME280;6154;51.550;12.138;2023-08-20T04:47:29;100968.94;;;26.89;74.92
12182;BME280;6154;51.550;12.138;2023-08-20T04:49:57;100975.69;;;26.93;74.71
12182;BME280;6154;51.550;12.138;2023-08-20T04:52:25;100976.03;;;26.99;74.92
12182;BME280;6154;51.550;12.138;2023-08-20T04:54:54;100971.94;;;26.94;75.57
12182;BME280;6154;51.550;12.138;2023-08-20T04:57:24;100971.78;;;26.96;75.64
12182;BME280;6154;51.550;12.138;2023-08-20T04:59:52;100972.94;;;27.02;75.09
12182;BME280;6154;51.550;12.138;2023-08-20T05:02:20;100979.75;;;26.98;75.64
12182;BME280;6154;51.550;12.138;2023-08-20T05:04:49;100972.63;;;26.97;75.67
12182;BME280;6154;51.550;12.138;2023-08-20T05:07:17;100983.50;;;26.97;75.81
12182;BME280;6154;51.550;12.138;2023-08-20T05:09:45;100990.13;;;26.94;77.08
12182;BME280;6154;51.550;12.138;2023-08-20T05:12:14;100992.13;;;27.00;75.21
12182;BME280;6154;51.550;12.138;2023-08-20T05:14:43;100988.09;;;26.96;75.88
12182;BME280;6154;51.550;12.138;2023-08-20T05:17:12;101000.81;;;26.96;75.41
12182;BME280;6154;51.550;12.138;2023-08-20T05:19:40;101001.66;;;27.04;75.10
12182;BME280;6154;51.550;12.138;2023-08-20T05:22:08;100999.78;;;27.05;74.84
12182;BME280;6154;51.550;12.138;2023-08-20T05:24:40;101003.53;;;27.04;74.87
12182;BME280;6154;51.550;12.138;2023-08-20T05:27:09;101008.97;;;26.96;75.67
12182;BME280;6154;51.550;12.138;2023-08-20T05:29:37;101011.84;;;26.94;75.78
12182;BME280;6154;51.550;12.138;2023-08-20T05:32:07;101007.78;;;26.98;75.32
12182;BME280;6154;51.550;12.138;2023-08-20T05:34:36;101010.13;;;27.09;75.49
12182;BME280;6154;51.550;12.138;2023-08-20T05:37:04;101010.91;;;27.26;74.89
12182;BME280;6154;51.550;12.138;2023-08-20T05:39:37;101014.69;;;27.17;74.49
12182;BME280;6154;51.550;12.138;2023-08-20T05:42:06;101022.34;;;27.13;75.60
12182;BME280;6154;51.550;12.138;2023-08-20T05:44:34;101017.88;;;27.20;74.60
12182;BME280;6154;51.550;12.138;2023-08-20T05:47:02;101025.56;;;27.17;74.56
12182;BME280;6154;51.550;12.138;2023-08-20T05:49:34;101025.06;;;27.13;74.78
12182;BME280;6154;51.550;12.138;2023-08-20T05:52:03;101024.88;;;27.15;74.53
12182;BME280;6154;51.550;12.138;2023-08-20T05:54:31;101023.00;;;27.15;74.91
12182;BME280;6154;51.550;12.138;2023-08-20T05:56:59;101018.59;;;27.14;74.82
12182;BME280;6154;51.550;12.138;2023-08-20T05:59:29;101025.09;;;27.05;74.76
12182;BME280;6154;51.550;12.138;2023-08-20T06:01:57;101017.44;;;27.09;74.33
12182;BME280;6154;51.550;12.138;2023-08-20T06:04:25;101038.53;;;27.07;74.03
12182;BME280;6154;51.550;12.138;2023-08-20T06:06:54;101047.34;;;27.09;74.29
12182;BME280;6154;51.550;12.138;2023-08-20T06:09:22;101049.81;;;27.27;73.33
12182;BME280;6154;51.550;12.138;2023-08-20T06:11:51;101052.38;;;27.20;73.48
12182;BME280;6154;51.550;12.138;2023-08-20T06:14:19;101045.78;;;27.14;73.73
12182;BME280;6154;51.550;12.138;2023-08-20T06:16:47;101055.28;;;27.18;73.32
12182;BME280;6154;51.550;12.138;2023-08-20T06:19:16;101058.25;;;27.32;72.92
12182;BME280;6154;51.550;12.138;2023-08-20T06:21:44;101063.47;;;27.41;72.77
12182;BME280;6154;51.550;12.138;2023-08-20T06:24:15;101061.09;;;27.46;72.40
12182;BME280;6154;51.550;12.138;2023-08-20T06:26:44;101056.16;;;27.73;72.02
12182;BME280;6154;51.550;12.138;2023-08-20T06:29:12;101068.75;;;27.74;72.15
12182;BME280;6154;51.550;12.138;2023-08-20T06:31:40;101071.53;;;27.89;71.56
12182;BME280;6154;51.550;12.138;2023-08-20T06:34:09;101076.94;;;27.97;71.42
12182;BME280;6154;51.550;12.138;2023-08-20T06:36:37;101084.41;;;28.18;71.19
12182;BME280;6154;51.550;12.138;2023-08-20T06:39:05;101084.69;;;28.23;71.19
12182;BME280;6154;51.550;12.138;2023-08-20T06:41:35;101086.72;;;28.29;70.82
12182;BME280;6154;51.550;12.138;2023-08-20T06:44:05;101098.50;;;28.21;70.97
12182;BME280;6154;51.550;12.138;2023-08-20T06:46:33;101103.38;;;28.26;70.74
12182;BME280;6154;51.550;12.138;2023-08-20T06:49:01;101097.56;;;28.37;70.61
12182;BME280;6154;51.550;12.138;2023-08-20T06:51:30;101109.09;;;28.39;70.62
12182;BME280;6154;51.550;12.138;2023-08-20T06:53:58;101095.22;;;28.49;70.23
12182;BME280;6154;51.550;12.138;2023-08-20T06:56:26;101101.44;;;28.57;69.86
12182;BME280;6154;51.550;12.138;2023-08-20T06:58:56;101106.12;;;28.49;70.11
12182;BME280;6154;51.550;12.138;2023-08-20T07:01:24;101105.72;;;28.37;69.90
12182;BME280;6154;51.550;12.138;2023-08-20T07:03:53;101108.66;;;28.50;69.52
12182;BME280;6154;51.550;12.138;2023-08-20T07:06:21;101111.66;;;28.55;69.38
12182;BME280;6154;51.550;12.138;2023-08-20T07:08:49;101110.53;;;28.50;69.53
12182;BME280;6154;51.550;12.138;2023-08-20T07:11:18;101105.47;;;28.61;69.10
12182;BME280;6154;51.550;12.138;2023-08-20T07:13:46;101106.06;;;28.72;68.94
12182;BME280;6154;51.550;12.138;2023-08-20T07:16:15;101099.31;;;28.68;68.09
12182;BME280;6154;51.550;12.138;2023-08-20T07:18:44;101095.25;;;28.63;67.48
12182;BME280;6154;51.550;12.138;2023-08-20T07:21:12;101092.25;;;28.73;67.57
12182;BME280;6154;51.550;12.138;2023-08-20T07:23:40;101098.19;;;28.77;67.21
12182;BME280;6154;51.550;12.138;2023-08-20T07:26:10;101091.97;;;28.83;67.10
12182;BME280;6154;51.550;12.138;2023-08-20T07:28:39;101109.22;;;28.98;66.59
12182;BME280;6154;51.550;12.138;2023-08-20T07:31:29;101113.91;;;29.19;66.49
12182;BME280;6154;51.550;12.138;2023-08-20T07:33:59;101131.03;;;28.98;64.89
12182;BME280;6154;51.550;12.138;2023-08-20T07:36:32;101130.44;;;28.88;65.39
12182;BME280;6154;51.550;12.138;2023-08-20T07:39:00;101134.50;;;28.92;65.76
12182;BME280;6154;51.550;12.138;2023-08-20T07:41:29;101140.59;;;28.94;65.61
12182;BME280;6154;51.550;12.138;2023-08-20T07:43:58;101137.31;;;28.99;65.29
12182;BME280;6154;51.550;12.138;2023-08-20T07:46:27;101141.09;;;29.12;65.71
12182;BME280;6154;51.550;12.138;2023-08-20T07:48:55;101146.63;;;29.19;65.43
12182;BME280;6154;51.550;12.138;2023-08-20T07:51:24;101150.03;;;29.21;65.74
12182;BME280;6154;51.550;12.138;2023-08-20T07:53:52;101152.84;;;29.28;65.00
12182;BME280;6154;51.550;12.138;2023-08-20T07:56:20;101153.59;;;29.51;65.05
12182;BME280;6154;51.550;12.138;2023-08-20T07:58:48;101142.69;;;29.36;65.12
12182;BME280;6154;51.550;12.138;2023-08-20T08:01:16;101136.09;;;29.31;65.23
12182;BME280;6154;51.550;12.138;2023-08-20T08:03:48;101141.47;;;29.09;65.46
12182;BME280;6154;51.550;12.138;2023-08-20T08:06:16;101152.00;;;29.12;65.44
12182;BME280;6154;51.550;12.138;2023-08-20T08:08:46;101157.34;;;29.20;65.27
12182;BME280;6154;51.550;12.138;2023-08-20T08:11:14;101153.75;;;29.05;64.12
12182;BME280;6154;51.550;12.138;2023-08-20T08:13:42;101146.63;;;29.19;64.85
12182;BME280;6154;51.550;12.138;2023-08-20T08:16:10;101147.38;;;29.28;64.32
12182;BME280;6154;51.550;12.138;2023-08-20T08:18:39;101136.34;;;29.36;63.73
12182;BME280;6154;51.550;12.138;2023-08-20T08:21:08;101145.03;;;29.54;64.00
12182;BME280;6154;51.550;12.138;2023-08-20T08:23:36;101149.63;;;29.68;62.97
12182;BME280;6154;51.550;12.138;2023-08-20T08:26:05;101145.97;;;29.61;63.53
12182;BME280;6154;51.550;12.138;2023-08-20T08:28:33;101142.41;;;29.82;62.98
12182;BME280;6154;51.550;12.138;2023-08-20T08:31:01;101137.81;;;30.04;62.99
12182;BME280;6154;51.550;12.138;2023-08-20T08:33:33;101132.16;;;30.05;61.69
12182;BME280;6154;51.550;12.138;2023-08-20T08:36:01;101137.34;;;30.15;61.94
12182;BME280;6154;51.550;12.138;2023-08-20T08:38:30;101134.16;;;30.33;61.42
12182;BME280;6154;51.550;12.138;2023-08-20T08:41:00;101128.34;;;30.43;61.07
12182;BME280;6154;51.550;12.138;2023-08-20T08:43:29;101131.59;;;30.53;61.13
12182;BME280;6154;51.550;12.138;2023-08-20T08:46:01;101138.87;;;30.46;59.96
12182;BME280;6154;51.550;12.138;2023-08-20T08:48:32;101134.72;;;30.50;60.03
12182;BME280;6154;51.550;12.138;2023-08-20T08:51:02;101131.91;;;30.65;60.42
12182;BME280;6154;51.550;12.138;2023-08-20T08:53:32;101138.06;;;30.67;59.86
12182;BME280;6154;51.550;12.138;2023-08-20T08:56:01;101141.94;;;30.57;59.42
12182;BME280;6154;51.550;12.138;2023-08-20T08:58:30;101131.69;;;30.38;58.42
12182;BME280;6154;51.550;12.138;2023-08-20T09:00:58;101135.44;;;30.58;59.62
12182;BME280;6154;51.550;12.138;2023-08-20T09:03:26;101128.47;;;30.77;59.47
12182;BME280;6154;51.550;12.138;2023-08-20T09:05:56;101129.38;;;30.91;59.49
12182;BME280;6154;51.550;12.138;2023-08-20T09:08:26;101133.84;;;30.99;59.13
12182;BME280;6154;51.550;12.138;2023-08-20T09:10:57;101137.00;;;31.30;58.67
12182;BME280;6154;51.550;12.138;2023-08-20T09:13:26;101135.53;;;31.34;57.86
12182;BME280;6154;51.550;12.138;2023-08-20T09:16:03;101134.31;;;31.43;58.49
12182;BME280;6154;51.550;12.138;2023-08-20T09:18:32;101125.97;;;31.58;57.72
12182;BME280;6154;51.550;12.138;2023-08-20T09:21:00;101139.47;;;31.73;58.28
12182;BME280;6154;51.550;12.138;2023-08-20T09:23:29;101131.34;;;31.80;57.27
12182;BME280;6154;51.550;12.138;2023-08-20T09:26:01;101133.22;;;31.86;57.17
12182;BME280;6154;51.550;12.138;2023-08-20T09:28:29;101131.38;;;32.06;56.62
12182;BME280;6154;51.550;12.138;2023-08-20T09:31:08;101127.41;;;32.09;56.52
12182;BME280;6154;51.550;12.138;2023-08-20T09:33:48;101121.69;;;32.03;56.29
12182;BME280;6154;51.550;12.138;2023-08-20T09:36:17;101115.78;;;32.00;53.25
12182;BME280;6154;51.550;12.138;2023-08-20T09:38:45;101118.56;;;32.20;56.51
12182;BME280;6154;51.550;12.138;2023-08-20T09:41:18;101118.37;;;32.41;56.44
12182;BME280;6154;51.550;12.138;2023-08-20T09:43:48;101110.78;;;32.50;56.09
12182;BME280;6154;51.550;12.138;2023-08-20T09:46:17;101114.38;;;32.50;55.68
12182;BME280;6154;51.550;12.138;2023-08-20T09:48:48;101104.44;;;32.56;55.58
12182;BME280;6154;51.550;12.138;2023-08-20T09:51:23;101103.81;;;32.67;55.43
12182;BME280;6154;51.550;12.138;2023-08-20T09:53:57;101119.41;;;32.53;53.46
12182;BME280;6154;51.550;12.138;2023-08-20T09:56:30;101118.16;;;32.69;52.90
12182;BME280;6154;51.550;12.138;2023-08-20T09:59:00;101118.78;;;32.78;54.70
12182;BME280;6154;51.550;12.138;2023-08-20T10:01:29;101117.06;;;33.03;54.97
12182;BME280;6154;51.550;12.138;2023-08-20T10:03:59;101111.31;;;33.18;54.65
12182;BME280;6154;51.550;12.138;2023-08-20T10:06:28;101111.66;;;33.35;54.11
12182;BME280;6154;51.550;12.138;2023-08-20T10:08:58;101107.59;;;33.57;53.20
12182;BME280;6154;51.550;12.138;2023-08-20T10:11:27;101110.06;;;33.65;53.64
12182;BME280;6154;51.550;12.138;2023-08-20T10:13:56;101107.53;;;33.70;53.24
12182;BME280;6154;51.550;12.138;2023-08-20T10:16:27;101112.91;;;33.52;52.97
12182;BME280;6154;51.550;12.138;2023-08-20T10:18:55;101104.66;;;33.52;52.31
12182;BME280;6154;51.550;12.138;2023-08-20T10:21:26;101096.50;;;33.39;53.71
12182;BME280;6154;51.550;12.138;2023-08-20T10:23:55;101105.91;;;33.56;53.75
12182;BME280;6154;51.550;12.138;2023-08-20T10:26:23;101103.62;;;33.91;53.26
12182;BME280;6154;51.550;12.138;2023-08-20T10:32:00;101096.81;;;34.25;47.14
12182;BME280;6154;51.550;12.138;2023-08-20T10:34:35;101093.50;;;34.67;52.15
12182;BME280;6154;51.550;12.138;2023-08-20T10:37:09;101093.63;;;34.78;48.78
12182;BME280;6154;51.550;12.138;2023-08-20T10:39:37;101093.63;;;34.78;50.36
12182;BME280;6154;51.550;12.138;2023-08-20T10:42:21;101099.06;;;35.03;51.82
12182;BME280;6154;51.550;12.138;2023-08-20T10:44:56;101098.41;;;34.83;49.25
12182;BME280;6154;51.550;12.138;2023-08-20T10:47:35;101092.59;;;34.73;48.51
12182;BME280;6154;51.550;12.138;2023-08-20T10:50:04;101090.81;;;34.35;47.57
12182;BME280;6154;51.550;12.138;2023-08-20T10:52:38;101085.91;;;34.44;51.76
12182;BME280;6154;51.550;12.138;2023-08-20T10:55:08;101091.63;;;34.36;50.17
12182;BME280;6154;51.550;12.138;2023-08-20T10:57:37;101095.25;;;34.11;51.88
12182;BME280;6154;51.550;12.138;2023-08-20T11:00:06;101090.31;;;34.45;51.63
12182;BME280;6154;51.550;12.138;2023-08-20T11:02:40;101089.19;;;34.27;49.74
12182;BME280;6154;51.550;12.138;2023-08-20T11:05:16;101097.97;;;34.36;50.15
12182;BME280;6154;51.550;12.138;2023-08-20T11:07:46;101100.53;;;34.06;49.18
12182;BME280;6154;51.550;12.138;2023-08-20T11:10:15;101098.28;;;34.28;51.53
12182;BME280;6154;51.550;12.138;2023-08-20T11:12:46;101091.56;;;34.49;50.78
12182;BME280;6154;51.550;12.138;2023-08-20T11:15:14;101084.59;;;34.46;50.16
12182;BME280;6154;51.550;12.138;2023-08-20T11:17:44;101091.22;;;34.64;50.56
12182;BME280;6154;51.550;12.138;2023-08-20T11:20:17;101082.16;;;34.81;49.68
12182;BME280;6154;51.550;12.138;2023-08-20T11:22:45;101081.88;;;34.90;50.11
12182;BME280;6154;51.550;12.138;2023-08-20T11:25:13;101084.19;;;34.68;50.07
12182;BME280;6154;51.550;12.138;2023-08-20T11:27:42;101090.87;;;34.97;49.63
12182;BME280;6154;51.550;12.138;2023-08-20T11:30:11;101083.41;;;35.04;50.50
12182;BME280;6154;51.550;12.138;2023-08-20T11:32:40;101086.09;;;35.10;50.34
12182;BME280;6154;51.550;12.138;2023-08-20T11:35:12;101087.38;;;35.08;50.00
12182;BME280;6154;51.550;12.138;2023-08-20T11:37:41;101087.81;;;35.05;49.44
12182;BME280;6154;51.550;12.138;2023-08-20T11:40:09;101082.50;;;34.92;50.01
12182;BME280;6154;51.550;12.138;2023-08-20T11:42:38;101086.84;;;34.99;49.67
12182;BME280;6154;51.550;12.138;2023-08-20T11:45:10;101085.06;;;35.05;49.76
12182;BME280;6154;51.550;12.138;2023-08-20T11:47:41;101076.59;;;34.88;46.83
12182;BME280;6154;51.550;12.138;2023-08-20T11:50:11;101088.22;;;34.90;49.27
12182;BME280;6154;51.550;12.138;2023-08-20T11:52:40;101077.44;;;34.89;49.65
12182;BME280;6154;51.550;12.138;2023-08-20T11:55:08;101074.37;;;34.97;49.75
12182;BME280;6154;51.550;12.138;2023-08-20T11:57:37;101081.59;;;34.98;49.36
12182;BME280;6154;51.550;12.138;2023-08-20T12:00:07;101070.25;;;35.06;49.42
12182;BME280;6154;51.550;12.138;2023-08-20T12:02:40;101069.34;;;34.94;48.44
12182;BME280;6154;51.550;12.138;2023-08-20T12:05:09;101059.69;;;35.03;49.41
12182;BME280;6154;51.550;12.138;2023-08-20T12:07:38;101068.22;;;34.76;49.84
12182;BME280;6154;51.550;12.138;2023-08-20T12:10:25;101071.28;;;34.68;49.20
12182;BME280;6154;51.550;12.138;2023-08-20T12:12:54;101077.44;;;34.89;45.42
12182;BME280;6154;51.550;12.138;2023-08-20T12:15:23;101073.66;;;34.83;49.41
12182;BME280;6154;51.550;12.138;2023-08-20T12:17:59;101065.16;;;34.66;49.57
12182;BME280;6154;51.550;12.138;2023-08-20T12:20:29;101066.16;;;34.72;48.36
12182;BME280;6154;51.550;12.138;2023-08-20T12:23:01;101060.28;;;34.68;49.27
12182;BME280;6154;51.550;12.138;2023-08-20T12:25:32;101060.28;;;34.68;49.20
12182;BME280;6154;51.550;12.138;2023-08-20T12:28:01;101057.16;;;34.83;49.77
12182;BME280;6154;51.550;12.138;2023-08-20T12:30:31;101062.28;;;34.79;49.35
12182;BME280;6154;51.550;12.138;2023-08-20T12:33:05;101044.22;;;34.65;49.40
12182;BME280;6154;51.550;12.138;2023-08-20T12:35:34;101057.03;;;34.53;49.85
12182;BME280;6154;51.550;12.138;2023-08-20T12:38:04;101056.25;;;34.46;50.05
12182;BME280;6154;51.550;12.138;2023-08-20T12:40:34;101046.94;;;34.47;49.71
12182;BME280;6154;51.550;12.138;2023-08-20T12:43:03;101052.91;;;34.44;49.84
12182;BME280;6154;51.550;12.138;2023-08-20T12:45:32;101043.91;;;34.55;50.09
12182;BME280;6154;51.550;12.138;2023-08-20T12:48:00;101041.25;;;34.48;49.91
12182;BME280;6154;51.550;12.138;2023-08-20T12:50:29;101037.19;;;34.51;49.58
12182;BME280;6154;51.550;12.138;2023-08-20T12:52:57;101047.84;;;34.41;49.54
12182;BME280;6154;51.550;12.138;2023-08-20T12:55:27;101031.75;;;34.44;49.73
12182;BME280;6154;51.550;12.138;2023-08-20T12:57:57;101034.28;;;34.64;49.80
12182;BME280;6154;51.550;12.138;2023-08-20T13:00:26;101040.41;;;34.48;49.47
12182;BME280;6154;51.550;12.138;2023-08-20T13:02:55;101035.94;;;34.47;49.62
12182;BME280;6154;51.550;12.138;2023-08-20T13:05:25;101031.28;;;34.66;49.71
12182;BME280;6154;51.550;12.138;2023-08-20T13:07:54;101031.69;;;34.69;49.67